Time;durP1;ratioP1;P1;durP2;ratioP2;P2;SDS_P1;SDS_P2;PMS_P1;PMS_P2;Temp;Humidity;BMP_temperature;BMP_pressure;BME280_temperature;BME280_humidity;BME280_pressure;Samples;Min_cycle;Max_cycle;Signal;HPM_P1;HPM_P2
2023/01/10 00:01:41;;;;;;;;;;;4.50;99.90;;;;;;4991883;28;20058;-60
2023/01/10 00:04:08;;;;;;;13.10;1.48;;;4.40;99.90;;;;;;4982078;28;19921;-61
2023/01/10 00:06:36;;;;;;;10.88;2.67;;;4.40;99.90;;;;;;4989546;28;20042;-61
2023/01/10 00:09:10;;;;;;;15.68;2.75;;;4.40;99.90;;;;;;4997290;28;20060;-60
2023/01/10 00:14:27;;;;;;;24.83;2.17;;;4.40;99.90;;;;;;4996376;28;20050;-61
2023/01/10 00:16:56;;;;;;;18.90;2.60;;;4.40;99.90;;;;;;4991373;28;20057;-61
2023/01/10 00:19:24;;;;;;;13.48;2.03;;;4.40;99.90;;;;;;4991593;28;20050;-61
2023/01/10 00:21:52;;;;;;;18.52;2.75;;;4.30;99.90;;;;;;4989598;28;20061;-60
2023/01/10 00:24:22;;;;;;;25.27;2.70;;;4.30;99.90;;;;;;4990490;28;20049;-61
2023/01/10 00:26:51;;;;;;;20.30;2.72;;;4.30;99.90;;;;;;4989682;28;20047;-59
2023/01/10 00:29:26;;;;;;;13.73;2.50;;;4.30;99.90;;;;;;4986790;28;20046;-61
2023/01/10 00:31:54;;;;;;;30.27;3.88;;;4.30;99.90;;;;;;4980903;28;20039;-60
2023/01/10 00:34:22;;;;;;;23.48;2.60;;;4.30;99.90;;;;;;4983468;28;20485;-59
2023/01/10 00:36:50;;;;;;;19.60;2.45;;;4.30;99.90;;;;;;4987463;28;20038;-60
2023/01/10 00:39:19;;;;;;;22.02;2.28;;;4.20;99.90;;;;;;4990069;28;20069;-60
2023/01/10 00:44:33;;;;;;;17.52;2.00;;;4.20;99.90;;;;;;4990965;28;20575;-60
2023/01/10 00:47:01;;;;;;;15.38;2.95;;;4.20;99.90;;;;;;4985639;28;20499;-59
2023/01/10 00:49:28;;;;;;;20.05;2.75;;;4.20;99.90;;;;;;4987405;28;20391;-59
2023/01/10 00:51:58;;;;;;;23.80;3.13;;;4.20;99.90;;;;;;4982439;28;20045;-60
2023/01/10 00:54:26;;;;;;;25.23;3.50;;;4.20;99.90;;;;;;4988292;28;20050;-61
2023/01/10 00:56:53;;;;;;;17.50;3.42;;;4.30;99.90;;;;;;4989712;28;20073;-61
2023/01/10 00:59:21;;;;;;;17.98;1.90;;;4.20;99.90;;;;;;4990208;28;20053;-60
2023/01/10 01:01:50;;;;;;;24.77;2.38;;;4.20;99.90;;;;;;4979143;28;20069;-61
2023/01/10 01:04:18;;;;;;;14.32;1.90;;;4.30;99.90;;;;;;4980028;28;20496;-65
2023/01/10 01:06:47;;;;;;;30.58;4.30;;;4.30;99.90;;;;;;5010718;28;20045;-64
2023/01/10 01:09:16;;;;;;;25.85;2.80;;;4.30;99.90;;;;;;4988898;28;20043;-60
2023/01/10 01:11:44;;;;;;;18.58;2.28;;;;;;;;;;4989945;28;20057;-60
2023/01/10 01:14:12;;;;;;;21.92;1.90;;;4.30;99.90;;;;;;4988250;28;20038;-60
2023/01/10 01:16:39;;;;;;;21.63;3.30;;;4.30;99.90;;;;;;4990495;28;20383;-60
2023/01/10 01:19:07;;;;;;;19.13;2.60;;;4.30;99.90;;;;;;4990577;28;20054;-61
2023/01/10 01:21:34;;;;;;;25.70;2.90;;;4.30;99.90;;;;;;4981735;28;20053;-60
2023/01/10 01:24:02;;;;;;;20.38;2.83;;;4.40;99.90;;;;;;4997167;28;20069;-60
2023/01/10 01:26:30;;;;;;;15.35;2.65;;;4.40;99.90;;;;;;4988552;28;20062;-60
2023/01/10 01:28:57;;;;;;;16.42;2.05;;;4.30;99.90;;;;;;4972252;28;20046;-60
2023/01/10 01:31:25;;;;;;;22.70;2.28;;;4.40;99.90;;;;;;4983909;28;20077;-60
2023/01/10 01:33:53;;;;;;;23.27;2.40;;;4.40;99.90;;;;;;4988022;28;20057;-60
2023/01/10 01:36:20;;;;;;;16.17;2.28;;;4.40;99.90;;;;;;4987055;28;20046;-60
2023/01/10 01:38:48;;;;;;;27.70;3.20;;;4.40;99.90;;;;;;4984558;28;20058;-61
2023/01/10 01:44:13;;;;;;;18.85;2.88;;;4.40;99.90;;;;;;4987510;28;20030;-60
2023/01/10 01:46:43;;;;;;;29.60;2.63;;;4.40;99.90;;;;;;4987557;28;20050;-62
2023/01/10 01:49:17;;;;;;;9.40;1.90;;;4.40;99.90;;;;;;4981190;28;20058;-59
2023/01/10 01:51:49;;;;;;;20.40;2.50;;;4.50;99.90;;;;;;4977196;28;20046;-59
2023/01/10 01:54:18;;;;;;;19.90;2.88;;;4.50;99.90;;;;;;5013141;28;20038;-60
2023/01/10 01:56:57;;;;;;;20.70;2.13;;;4.50;99.90;;;;;;4988206;28;20053;-60
2023/01/10 01:59:33;;;;;;;21.55;3.35;;;4.60;99.90;;;;;;4974227;28;20055;-60
2023/01/10 02:02:13;;;;;;;24.08;2.53;;;4.70;99.90;;;;;;4984400;28;20050;-59
2023/01/10 02:04:51;;;;;;;20.25;3.40;;;4.80;99.90;;;;;;4983802;28;20054;-60
2023/01/10 02:07:21;;;;;;;20.08;2.17;;;4.90;99.90;;;;;;4985525;28;20046;-59
2023/01/10 02:10:03;;;;;;;22.27;2.83;;;4.90;99.90;;;;;;4989823;28;20439;-60
2023/01/10 02:12:32;;;;;;;30.50;3.65;;;5.00;99.90;;;;;;4987030;28;20487;-59
2023/01/10 02:15:00;;;;;;;24.27;3.15;;;5.00;99.90;;;;;;4988161;28;20410;-60
2023/01/10 02:17:29;;;;;;;18.95;2.45;;;5.10;99.90;;;;;;4991627;28;20050;-60
2023/01/10 02:20:05;;;;;;;18.50;2.95;;;5.00;99.90;;;;;;4989371;28;20053;-60
2023/01/10 02:22:58;;;;;;;20.13;1.92;;;5.10;99.90;;;;;;4990804;28;20486;-60
2023/01/10 02:25:44;;;;;;;26.08;3.72;;;5.10;99.90;;;;;;4992737;28;20043;-61
2023/01/10 02:28:24;;;;;;;18.38;2.38;;;5.10;99.90;;;;;;4987924;28;20039;-61
2023/01/10 02:31:09;;;;;;;23.38;2.67;;;5.20;99.90;;;;;;5005526;28;20057;-60
2023/01/10 02:34:08;;;;;;;19.35;3.28;;;5.20;99.90;;;;;;4989808;28;20053;-61
2023/01/10 02:37:12;;;;;;;22.80;3.00;;;5.10;99.90;;;;;;4977949;28;20491;-61
2023/01/10 02:39:53;;;;;;;21.83;2.50;;;5.20;99.90;;;;;;4996546;28;20043;-60
2023/01/10 02:42:45;;;;;;;21.73;2.53;;;5.10;99.90;;;;;;4984934;28;20053;-61
2023/01/10 02:45:23;;;;;;;20.13;2.78;;;5.20;99.90;;;;;;4987786;28;20034;-62
2023/01/10 02:47:51;;;;;;;31.48;4.10;;;5.10;99.90;;;;;;4987262;28;20050;-59
2023/01/10 02:50:42;;;;;;;22.80;3.55;;;5.00;99.90;;;;;;4985627;28;20069;-60
2023/01/10 02:53:37;;;;;;;22.48;2.35;;;5.10;99.90;;;;;;4980322;28;20046;-60
2023/01/10 02:56:23;;;;;;;21.20;1.80;;;6.10;99.90;;;;;;5009069;28;20053;-60
2023/01/10 02:58:59;;;;;;;31.13;4.30;;;5.00;99.90;;;;;;4992359;28;20624;-59
2023/01/10 03:01:42;;;;;;;16.15;2.50;;;5.00;99.90;;;;;;4987184;28;20051;-60
2023/01/10 03:04:44;;;;;;;19.20;2.40;;;5.00;99.90;;;;;;5022936;28;20509;-60
2023/01/10 03:07:35;;;;;;;14.65;2.55;;;5.00;99.90;;;;;;4993226;28;20057;-60
2023/01/10 03:10:14;;;;;;;23.75;2.40;;;5.00;99.90;;;;;;4979940;28;20057;-60
2023/01/10 03:12:45;;;;;;;19.42;2.38;;;5.00;99.90;;;;;;4987269;28;20054;-60
2023/01/10 03:15:17;;;;;;;19.77;2.45;;;4.90;99.90;;;;;;4992049;28;20490;-61
2023/01/10 03:17:53;;;;;;;23.33;3.22;;;4.90;99.90;;;;;;4991229;28;20069;-60
2023/01/10 03:20:22;;;;;;;25.13;2.95;;;4.90;99.90;;;;;;4994410;28;20057;-60
2023/01/10 03:22:53;;;;;;;14.23;1.98;;;4.90;99.90;;;;;;4977017;28;20042;-60
2023/01/10 03:25:26;;;;;;;21.58;1.95;;;4.90;99.90;;;;;;4992922;28;20053;-60
2023/01/10 03:28:09;;;;;;;21.33;3.15;;;4.90;99.90;;;;;;4991112;28;20077;-60
2023/01/10 03:30:54;;;;;;;21.58;2.60;;;4.90;99.90;;;;;;4979261;28;20058;-60
2023/01/10 03:33:26;;;;;;;16.38;3.08;;;4.80;99.90;;;;;;4990363;28;20047;-61
2023/01/10 03:36:17;;;;;;;15.82;2.47;;;4.80;99.90;;;;;;4992303;28;20065;-60
2023/01/10 03:39:13;;;;;;;21.35;2.38;;;4.80;99.90;;;;;;4989602;28;20105;-59
2023/01/10 03:41:52;;;;;;;19.73;2.13;;;4.80;99.90;;;;;;4980678;28;20495;-59
2023/01/10 03:44:52;;;;;;;12.75;1.60;;;4.80;99.90;;;;;;4992731;28;20050;-60
2023/01/10 03:47:40;;;;;;;;;;;4.80;99.90;;;;;;4994555;28;20532;-59
2023/01/10 03:50:16;;;;;;;12.30;1.85;;;4.70;99.90;;;;;;4986552;28;19926;-60
2023/01/10 03:52:44;;;;;;;11.73;2.17;;;4.70;99.90;;;;;;4990803;28;20038;-59
2023/01/10 03:55:17;;;;;;;19.77;2.72;;;4.70;99.90;;;;;;4974644;28;20529;-60
2023/01/10 03:57:44;;;;;;;15.45;2.38;;;4.70;99.90;;;;;;4984660;28;20050;-61
2023/01/10 04:00:14;;;;;;;19.73;2.35;;;4.60;99.90;;;;;;4974149;28;20047;-59
2023/01/10 04:02:41;;;;;;;17.93;2.63;;;4.70;99.90;;;;;;4977944;28;20038;-60
2023/01/10 04:05:10;;;;;;;15.73;3.08;;;4.60;99.90;;;;;;4993962;28;20292;-60
2023/01/10 04:07:37;;;;;;;13.65;2.17;;;4.70;99.90;;;;;;4992652;28;20047;-60
2023/01/10 04:10:06;;;;;;;26.48;2.97;;;4.60;99.90;;;;;;4983929;28;20050;-60
2023/01/10 04:12:33;;;;;;;20.35;2.30;;;4.60;99.90;;;;;;4991163;28;20046;-60
2023/01/10 04:15:01;;;;;;;22.83;2.40;;;4.60;99.90;;;;;;4993719;28;20046;-60
2023/01/10 04:17:29;;;;;;;15.00;2.25;;;4.70;99.90;;;;;;4992982;28;20502;-60
2023/01/10 04:19:57;;;;;;;12.00;1.50;;;4.60;99.90;;;;;;4992102;28;20042;-60
2023/01/10 04:22:25;;;;;;;18.65;2.15;;;4.60;99.90;;;;;;4987477;28;20505;-59
2023/01/10 04:24:53;;;;;;;15.63;2.50;;;4.70;99.90;;;;;;4985761;28;20046;-61
2023/01/10 04:27:21;;;;;;;16.90;2.67;;;4.60;99.90;;;;;;4990775;28;20050;-60
2023/01/10 04:29:48;;;;;;;11.82;1.60;;;4.60;99.90;;;;;;4978056;28;20054;-60
2023/01/10 04:32:16;;;;;;;20.95;2.25;;;4.70;99.90;;;;;;4983186;28;20375;-59
2023/01/10 04:34:43;;;;;;;23.42;3.53;;;4.70;99.90;;;;;;4990374;28;20046;-60
2023/01/10 04:37:11;;;;;;;18.85;1.83;;;4.60;99.90;;;;;;4983019;28;20066;-60
2023/01/10 04:39:39;;;;;;;18.40;1.85;;;4.70;99.90;;;;;;4986089;28;20394;-60
2023/01/10 04:42:06;;;;;;;18.63;1.70;;;4.60;99.90;;;;;;4982704;28;20398;-60
2023/01/10 04:44:34;;;;;;;25.90;2.10;;;4.70;99.90;;;;;;4991654;28;20544;-59
2023/01/10 04:47:02;;;;;;;21.38;2.10;;;4.70;99.90;;;;;;4988542;28;20046;-59
2023/01/10 04:49:29;;;;;;;14.60;1.73;;;4.70;99.90;;;;;;4987787;28;20051;-59
2023/01/10 04:51:57;;;;;;;11.10;1.90;;;4.70;99.90;;;;;;4990829;28;20058;-58
2023/01/10 04:54:25;;;;;;;19.20;2.55;;;4.80;99.90;;;;;;4987190;28;20049;-59
2023/01/10 04:56:53;;;;;;;12.52;1.70;;;4.80;99.90;;;;;;4991797;28;20524;-58
2023/01/10 04:59:21;;;;;;;15.48;1.90;;;4.90;99.90;;;;;;5002417;28;20038;-59
2023/01/10 05:01:49;;;;;;;15.20;2.55;;;4.90;99.90;;;;;;5003555;28;20063;-59
2023/01/10 05:04:16;;;;;;;27.17;2.97;;;4.90;99.90;;;;;;4991265;28;20038;-59
2023/01/10 05:06:48;;;;;;;21.08;2.25;;;5.00;99.90;;;;;;4987964;28;20058;-59
2023/01/10 05:09:16;;;;;;;18.85;2.35;;;4.90;99.90;;;;;;4989384;28;20046;-60
2023/01/10 05:11:43;;;;;;;15.43;1.77;;;5.00;99.90;;;;;;4989644;28;20046;-63
2023/01/10 05:14:11;;;;;;;15.13;2.33;;;5.00;99.90;;;;;;4992819;28;20390;-60
2023/01/10 05:16:38;;;;;;;14.48;1.92;;;5.00;99.90;;;;;;5005355;28;20058;-60
2023/01/10 05:19:06;;;;;;;17.35;2.67;;;5.00;99.90;;;;;;4990894;28;20034;-59
2023/01/10 05:21:34;;;;;;;16.88;2.47;;;5.00;99.90;;;;;;4986843;28;20062;-60
2023/01/10 05:24:01;;;;;;;12.90;2.28;;;5.00;99.90;;;;;;4972805;28;20057;-60
2023/01/10 05:26:29;;;;;;;19.90;2.63;;;5.00;99.90;;;;;;4983144;28;20486;-59
2023/01/10 05:28:56;;;;;;;13.35;1.85;;;4.30;99.90;;;;;;4991758;28;20430;-59
2023/01/10 05:31:24;;;;;;;18.00;2.60;;;5.00;99.90;;;;;;4979236;28;20058;-59
2023/01/10 05:33:52;;;;;;;11.82;1.60;;;5.00;99.90;;;;;;4979034;28;20050;-59
2023/01/10 05:36:19;;;;;;;26.98;2.13;;;5.10;99.90;;;;;;4991042;28;20047;-58
2023/01/10 05:38:47;;;;;;;24.10;2.47;;;5.00;99.90;;;;;;4991430;28;20051;-58
2023/01/10 05:41:15;;;;;;;17.58;1.90;;;5.00;99.90;;;;;;4992242;28;20042;-58
2023/01/10 05:43:42;;;;;;;15.85;2.00;;;5.10;99.90;;;;;;4992426;28;20050;-59
2023/01/10 05:46:10;;;;;;;15.20;2.20;;;5.00;99.90;;;;;;4992044;28;20046;-58
2023/01/10 05:48:38;;;;;;;15.05;2.53;;;5.00;99.90;;;;;;4983950;28;20046;-58
2023/01/10 05:51:06;;;;;;;22.50;2.63;;;5.10;99.90;;;;;;4985804;28;20046;-58
2023/01/10 05:53:33;;;;;;;19.23;2.78;;;5.10;99.90;;;;;;4986647;28;20046;-58
2023/01/10 05:56:02;;;;;;;18.05;2.85;;;5.10;99.90;;;;;;4988833;28;20050;-59
2023/01/10 05:58:29;;;;;;;18.40;2.05;;;5.00;99.90;;;;;;4988496;28;20049;-59
2023/01/10 06:00:57;;;;;;;9.82;2.45;;;5.00;99.90;;;;;;4986145;28;20051;-58
2023/01/10 06:03:26;;;;;;;20.25;2.10;;;5.10;99.90;;;;;;4981735;28;20527;-59
2023/01/10 06:05:54;;;;;;;8.98;1.00;;;5.00;99.90;;;;;;4985703;28;20096;-59
2023/01/10 06:08:26;;;;;;;12.43;1.73;;;4.90;99.90;;;;;;4979247;28;20414;-59
2023/01/10 06:10:54;;;;;;;15.85;2.13;;;5.10;99.90;;;;;;4978234;28;20045;-59
2023/01/10 06:13:22;;;;;;;10.18;1.83;;;5.10;99.90;;;;;;4979928;28;20046;-60
2023/01/10 06:15:50;;;;;;;20.77;2.42;;;5.10;99.90;;;;;;4967000;28;20057;-59
2023/01/10 06:18:18;;;;;;;13.40;1.92;;;5.20;99.90;;;;;;4984118;28;20322;-60
2023/01/10 06:20:45;;;;;;;20.15;1.77;;;5.10;99.90;;;;;;4987949;28;20046;-59
2023/01/10 06:23:13;;;;;;;13.65;1.75;;;5.10;99.90;;;;;;4986333;28;20042;-59
2023/01/10 06:25:41;;;;;;;7.47;1.45;;;5.20;99.90;;;;;;5012868;28;20038;-59
2023/01/10 06:28:11;;;;;;;16.63;3.38;;;5.20;99.90;;;;;;4983493;28;20058;-60
2023/01/10 06:30:42;;;;;;;14.48;2.17;;;5.20;99.90;;;;;;4968262;28;20051;-59
2023/01/10 06:33:10;;;;;;;13.73;1.80;;;5.20;99.90;;;;;;4970640;28;20057;-59
2023/01/10 06:35:39;;;;;;;7.70;1.15;;;5.20;99.90;;;;;;4985465;28;20053;-59
2023/01/10 06:38:07;;;;;;;17.30;1.77;;;5.20;99.90;;;;;;4983871;28;20397;-59
2023/01/10 06:40:34;;;;;;;7.10;1.67;;;5.20;99.90;;;;;;4982453;28;20066;-59
2023/01/10 06:43:02;;;;;;;17.52;4.38;;;5.20;99.90;;;;;;4971947;28;20047;-59
2023/01/10 06:45:30;;;;;;;14.35;1.60;;;5.20;99.90;;;;;;4970705;28;20051;-58
2023/01/10 06:47:58;;;;;;;11.10;2.17;;;5.20;99.90;;;;;;4973250;28;20307;-59
2023/01/10 06:50:25;;;;;;;16.13;2.85;;;5.20;99.90;;;;;;4985593;28;20038;-59
2023/01/10 06:53:01;;;;;;;21.63;2.45;;;5.20;99.90;;;;;;4987575;28;20049;-59
2023/01/10 06:55:29;;;;;;;17.35;2.30;;;5.20;99.90;;;;;;4987613;28;20050;-59
2023/01/10 06:58:03;;;;;;;22.60;1.90;;;5.30;99.90;;;;;;4987943;28;20058;-60
2023/01/10 07:00:31;;;;;;;23.63;2.38;;;5.20;99.90;;;;;;4986258;28;20125;-59
2023/01/10 07:03:00;;;;;;;12.90;2.38;;;5.20;99.90;;;;;;4985277;28;20446;-59
2023/01/10 07:05:29;;;;;;;9.00;1.90;;;5.20;99.90;;;;;;4988483;28;20053;-60
2023/01/10 07:07:57;;;;;;;12.23;1.98;;;5.20;99.90;;;;;;4988009;28;20549;-59
2023/01/10 07:10:26;;;;;;;17.45;2.72;;;5.20;99.90;;;;;;4983038;28;20049;-59
2023/01/10 07:12:54;;;;;;;15.48;1.50;;;5.20;99.90;;;;;;4974638;28;20043;-61
2023/01/10 07:15:22;;;;;;;18.58;2.08;;;5.20;99.90;;;;;;4975627;28;20042;-59
2023/01/10 07:17:49;;;;;;;12.63;2.05;;;5.20;99.90;;;;;;4991545;28;20058;-59
2023/01/10 07:20:18;;;;;;;11.43;2.53;;;5.30;99.90;;;;;;4989737;28;20482;-60
2023/01/10 07:22:53;;;;;;;18.20;1.80;;;5.30;99.90;;;;;;4977431;28;20066;-61
2023/01/10 07:25:22;;;;;;;20.45;1.83;;;5.30;99.90;;;;;;4980661;28;20486;-60
2023/01/10 07:27:49;;;;;;;15.57;2.08;;;5.30;99.90;;;;;;4988739;28;20046;-60
2023/01/10 07:30:17;;;;;;;11.43;1.60;;;5.30;99.90;;;;;;4981708;28;20050;-57
2023/01/10 07:32:44;;;;;;;9.20;1.60;;;5.30;99.90;;;;;;4985358;28;20057;-57
2023/01/10 07:35:12;;;;;;;18.17;1.80;;;;;;;;;;4979022;28;20050;-58
2023/01/10 07:37:40;;;;;;;10.95;2.35;;;5.30;99.90;;;;;;4979343;28;20058;-58
2023/01/10 07:40:08;;;;;;;20.92;1.80;;;5.30;99.90;;;;;;4974945;28;20055;-58
2023/01/10 07:42:36;;;;;;;20.33;2.70;;;5.30;99.90;;;;;;4978838;28;20042;-58
2023/01/10 07:45:06;;;;;;;15.18;1.88;;;5.30;99.90;;;;;;4975462;28;20047;-58
2023/01/10 07:47:34;;;;;;;11.80;1.40;;;5.40;99.90;;;;;;4974946;28;20053;-58
2023/01/10 07:50:01;;;;;;;11.70;1.92;;;5.40;99.90;;;;;;4973773;28;20039;-58
2023/01/10 07:52:29;;;;;;;13.60;1.50;;;5.40;99.90;;;;;;4989563;28;20061;-59
2023/01/10 07:54:57;;;;;;;10.45;1.15;;;;;;;;;;4992192;28;20386;-59
2023/01/10 07:57:24;;;;;;;15.40;2.60;;;5.40;99.90;;;;;;4991164;28;20482;-58
2023/01/10 07:59:52;;;;;;;19.65;2.45;;;5.40;99.90;;;;;;4992275;28;20043;-59
2023/01/10 08:02:20;;;;;;;12.98;1.90;;;5.50;99.90;;;;;;4988698;28;20415;-59
2023/01/10 08:04:48;;;;;;;18.17;2.55;;;5.50;99.90;;;;;;4997896;28;20042;-61
2023/01/10 08:07:15;;;;;;;22.65;2.28;;;5.50;99.90;;;;;;4979744;28;20590;-58
2023/01/10 08:09:43;;;;;;;17.15;2.10;;;5.50;99.90;;;;;;4988116;28;20046;-59
2023/01/10 08:12:11;;;;;;;12.30;2.10;;;5.50;99.90;;;;;;4988475;28;20054;-58
2023/01/10 08:14:38;;;;;;;14.00;2.20;;;5.50;99.90;;;;;;5008669;28;20046;-59
2023/01/10 08:17:06;;;;;;;17.83;2.28;;;5.50;99.90;;;;;;5008570;28;20050;-58
2023/01/10 08:19:33;;;;;;;12.32;1.75;;;5.50;99.90;;;;;;4986015;28;20058;-61
2023/01/10 08:22:02;;;;;;;19.10;2.17;;;;;;;;;;4986901;28;20058;-58
2023/01/10 08:24:29;;;;;;;10.35;1.83;;;5.60;99.90;;;;;;4986772;28;20054;-58
2023/01/10 08:26:58;;;;;;;9.52;2.25;;;5.60;99.90;;;;;;4986621;28;20038;-57
2023/01/10 08:29:25;;;;;;;12.55;2.42;;;5.60;99.90;;;;;;4986451;28;20046;-59
2023/01/10 08:31:53;;;;;;;10.73;2.63;;;5.60;99.90;;;;;;4987308;28;20057;-58
2023/01/10 08:34:21;;;;;;;12.98;1.85;;;5.60;99.90;;;;;;4986336;28;20491;-60
2023/01/10 08:36:50;;;;;;;12.80;2.47;;;5.60;99.90;;;;;;4977013;28;20051;-58
2023/01/10 08:39:21;;;;;;;9.20;3.03;;;5.60;99.90;;;;;;4981942;28;20915;-59
2023/01/10 08:41:48;;;;;;;10.68;2.10;;;5.60;99.90;;;;;;4987254;28;20493;-58
2023/01/10 08:44:16;;;;;;;10.48;1.85;;;5.60;99.90;;;;;;4987403;28;20053;-58
2023/01/10 08:46:44;;;;;;;12.20;3.33;;;5.70;99.90;;;;;;4991658;28;20058;-61
2023/01/10 08:49:12;;;;;;;4.88;1.73;;;5.70;99.90;;;;;;4990190;28;20433;-58
2023/01/10 08:51:40;;;;;;;9.13;1.63;;;5.70;99.90;;;;;;4989130;28;20524;-59
2023/01/10 08:54:07;;;;;;;7.78;1.40;;;5.70;99.90;;;;;;4988477;28;20043;-58
2023/01/10 08:56:36;;;;;;;10.70;2.38;;;5.80;99.90;;;;;;4991248;28;20055;-59
2023/01/10 08:59:03;;;;;;;13.68;2.20;;;5.80;99.90;;;;;;4993314;28;20041;-58
2023/01/10 09:01:31;;;;;;;13.95;2.15;;;5.80;99.90;;;;;;4986248;28;20062;-58
2023/01/10 09:03:59;;;;;;;11.93;1.73;;;5.80;99.90;;;;;;5004322;28;20514;-58
2023/01/10 09:06:26;;;;;;;13.05;2.30;;;5.80;99.90;;;;;;4990095;28;20046;-58
2023/01/10 09:08:54;;;;;;;10.55;2.65;;;5.90;99.90;;;;;;5015425;28;20046;-58
2023/01/10 09:11:22;;;;;;;5.95;1.30;;;5.90;99.90;;;;;;4990524;28;20046;-58
2023/01/10 09:13:50;;;;;;;7.63;1.30;;;5.90;99.90;;;;;;5000826;28;20050;-58
2023/01/10 09:16:18;;;;;;;1.90;0.80;;;6.00;99.90;;;;;;4990873;28;20050;-58
2023/01/10 09:18:45;;;;;;;11.05;1.67;;;6.00;99.90;;;;;;4986416;28;20068;-59
2023/01/10 09:21:13;;;;;;;2.97;0.93;;;6.10;99.90;;;;;;4990772;28;20050;-59
2023/01/10 09:23:42;;;;;;;3.72;1.08;;;6.10;99.90;;;;;;4988977;28;20057;-58
2023/01/10 09:26:10;;;;;;;5.63;1.05;;;6.10;99.90;;;;;;4991134;28;20053;-58
2023/01/10 09:28:38;;;;;;;7.88;1.83;;;6.10;99.90;;;;;;5021007;28;20046;-58
2023/01/10 09:31:10;;;;;;;7.10;1.13;;;6.20;99.90;;;;;;4989074;28;20042;-58
2023/01/10 09:33:40;;;;;;;4.95;1.50;;;6.20;99.90;;;;;;4979528;28;20038;-58
2023/01/10 09:36:14;;;;;;;8.18;1.00;;;6.30;99.90;;;;;;4987743;28;20613;-59
2023/01/10 09:38:43;;;;;;;4.82;1.25;;;6.30;99.90;;;;;;4989222;28;20046;-59
2023/01/10 09:41:26;;;;;;;4.93;0.93;;;6.30;99.90;;;;;;4971030;28;20050;-59
2023/01/10 09:44:03;;;;;;;8.00;1.52;;;6.40;99.90;;;;;;4995264;28;20058;-59
2023/01/10 09:46:48;;;;;;;7.88;1.67;;;6.40;99.90;;;;;;4990449;28;20402;-58
2023/01/10 09:49:25;;;;;;;4.28;1.40;;;6.50;99.90;;;;;;4986371;28;20042;-59
2023/01/10 09:51:55;;;;;;;4.72;2.30;;;6.40;99.90;;;;;;4987889;28;20046;-60
2023/01/10 09:54:33;;;;;;;2.10;0.90;;;6.50;99.90;;;;;;4970767;28;20054;-60
2023/01/10 09:57:02;;;;;;;3.70;1.02;;;6.40;99.90;;;;;;4976427;28;20041;-62
2023/01/10 09:59:38;;;;;;;2.70;1.13;;;6.50;99.90;;;;;;4994208;28;20502;-60
2023/01/10 10:02:30;;;;;;;1.55;1.25;;;6.50;99.90;;;;;;4973514;28;20069;-61
2023/01/10 10:05:08;;;;;;;1.27;0.85;;;6.60;99.90;;;;;;4983267;28;20047;-60
2023/01/10 10:07:36;;;;;;;3.22;1.20;;;6.60;99.90;;;;;;4984170;28;20043;-60
2023/01/10 10:10:06;;;;;;;3.72;1.33;;;6.60;99.90;;;;;;4987277;28;20499;-60
2023/01/10 10:12:43;;;;;;;1.48;0.98;;;6.60;99.90;;;;;;4986407;28;20402;-58
2023/01/10 10:15:17;;;;;;;4.38;1.08;;;6.70;99.90;;;;;;4990164;28;20057;-60
2023/01/10 10:18:04;;;;;;;4.65;1.02;;;6.70;99.90;;;;;;4990025;28;20057;-59
2023/01/10 10:20:56;;;;;;;7.53;1.38;;;6.70;99.90;;;;;;4988974;28;20486;-57
2023/01/10 10:23:26;;;;;;;1.58;1.20;;;6.70;99.90;;;;;;4988109;28;20042;-61
2023/01/10 10:26:19;;;;;;;5.03;1.45;;;6.80;99.90;;;;;;4975757;28;20050;-58
2023/01/10 10:29:05;;;;;;;5.78;1.20;;;6.90;99.90;;;;;;4988455;28;20042;-58
2023/01/10 10:31:41;;;;;;;1.40;0.90;;;6.90;99.90;;;;;;4989791;28;20050;-58
2023/01/10 10:34:32;;;;;;;1.95;1.08;;;7.00;99.90;;;;;;4987823;28;20065;-59
2023/01/10 10:37:05;;;;;;;3.45;0.85;;;7.00;99.90;;;;;;4973774;28;20542;-59
2023/01/10 10:39:42;;;;;;;1.02;0.60;;;7.00;99.90;;;;;;4987899;28;20517;-59
2023/01/10 10:42:16;;;;;;;0.95;0.85;;;7.10;99.90;;;;;;4984278;28;20038;-58
2023/01/10 10:45:03;;;;;;;1.67;1.40;;;7.10;99.90;;;;;;5000014;28;20057;-58
2023/01/10 10:47:34;;;;;;;1.63;0.80;;;7.10;99.90;;;;;;4993798;28;20234;-59
2023/01/10 10:50:28;;;;;;;2.70;0.90;;;7.20;99.90;;;;;;4990574;28;20053;-59
2023/01/10 10:52:59;;;;;;;1.48;1.15;;;7.20;99.90;;;;;;4991730;28;20054;-59
2023/01/10 10:55:30;;;;;;;2.60;1.25;;;7.30;99.90;;;;;;4992287;28;20046;-58
2023/01/10 10:57:58;;;;;;;2.40;1.10;;;7.30;99.90;;;;;;4986696;28;20053;-59
2023/01/10 11:00:28;;;;;;;4.32;1.42;;;7.30;99.90;;;;;;4966433;28;20054;-59
2023/01/10 11:03:11;;;;;;;2.67;1.25;;;7.40;99.90;;;;;;4992364;28;20055;-60
2023/01/10 11:05:42;;;;;;;2.47;1.30;;;7.40;99.90;;;;;;4981835;28;20058;-59
2023/01/10 11:08:14;;;;;;;1.92;1.50;;;7.50;99.90;;;;;;4989627;28;20038;-60
2023/01/10 11:10:47;;;;;;;1.63;1.25;;;7.50;99.90;;;;;;4979694;28;20059;-59
2023/01/10 11:13:32;;;;;;;2.47;1.50;;;7.60;99.90;;;;;;4990640;28;20046;-59
2023/01/10 11:16:03;;;;;;;2.58;1.73;;;7.60;99.90;;;;;;4993088;28;20378;-59
2023/01/10 11:18:32;;;;;;;3.17;2.03;;;7.60;99.90;;;;;;4986633;28;20054;-59
2023/01/10 11:21:08;;;;;;;3.33;2.00;;;7.70;99.90;;;;;;4991697;28;20046;-60
2023/01/10 11:23:56;;;;;;;2.13;1.77;;;7.70;99.90;;;;;;4975151;28;20062;-59
2023/01/10 11:26:33;;;;;;;2.75;2.00;;;7.70;99.90;;;;;;4986084;28;20399;-60
2023/01/10 11:29:18;;;;;;;2.72;1.90;;;7.80;99.90;;;;;;5008339;28;20057;-59
2023/01/10 11:31:48;;;;;;;2.42;2.20;;;7.80;99.90;;;;;;4990079;28;20062;-59
2023/01/10 11:34:21;;;;;;;4.75;2.08;;;7.90;99.90;;;;;;4992204;28;20064;-59
2023/01/10 11:36:55;;;;;;;3.03;2.10;;;7.90;99.90;;;;;;4991589;28;20396;-59
2023/01/10 11:39:23;;;;;;;5.82;3.47;;;7.90;99.90;;;;;;4994032;28;20042;-59
2023/01/10 11:41:52;;;;;;;3.83;2.38;;;8.00;99.90;;;;;;4991515;28;20055;-59
2023/01/10 11:44:21;;;;;;;17.52;5.53;;;8.00;99.90;;;;;;4989020;28;20046;-59
2023/01/10 11:46:55;;;;;;;5.47;2.80;;;8.00;99.90;;;;;;4991633;28;20521;-59
2023/01/10 11:49:31;;;;;;;11.65;8.57;;;8.10;99.90;;;;;;4987629;28;20832;-59
2023/01/10 11:52:03;;;;;;;3.30;3.00;;;8.10;99.90;;;;;;4991536;28;20379;-59
2023/01/10 11:54:32;;;;;;;5.00;3.10;;;8.20;99.90;;;;;;4979045;28;20375;-59
2023/01/10 11:57:16;;;;;;;2.95;1.67;;;8.20;99.90;;;;;;4992204;28;20057;-59
2023/01/10 11:59:53;;;;;;;3.28;2.17;;;8.30;99.90;;;;;;4978951;28;20064;-59
2023/01/10 12:02:29;;;;;;;3.22;2.42;;;8.30;99.90;;;;;;4976993;28;20038;-59
2023/01/10 12:05:00;;;;;;;6.72;4.20;;;8.40;99.90;;;;;;4988869;28;20050;-59
2023/01/10 12:07:28;;;;;;;7.72;4.85;;;8.40;99.90;;;;;;4974094;28;20047;-59
2023/01/10 12:09:57;;;;;;;4.18;3.00;;;8.40;99.90;;;;;;4989916;28;20069;-59
2023/01/10 12:12:33;;;;;;;2.90;1.93;;;8.50;99.90;;;;;;4994648;28;20050;-58
2023/01/10 12:15:22;;;;;;;6.68;2.88;;;8.50;99.90;;;;;;4993821;28;20061;-57
2023/01/10 12:17:51;;;;;;;7.83;4.07;;;8.50;99.90;;;;;;4996754;28;20108;-58
2023/01/10 12:20:18;;;;;;;4.55;3.08;;;8.60;99.90;;;;;;4990996;28;20054;-58
2023/01/10 12:22:52;;;;;;;4.03;2.85;;;8.60;99.90;;;;;;4989688;28;20046;-59
2023/01/10 12:25:24;;;;;;;4.07;2.40;;;8.70;99.90;;;;;;4990760;28;20442;-59
2023/01/10 12:27:55;;;;;;;3.85;2.50;;;8.80;99.90;;;;;;5000041;28;20038;-59
2023/01/10 12:30:38;;;;;;;4.18;2.38;;;8.80;99.90;;;;;;5000736;28;20065;-58
2023/01/10 12:33:14;;;;;;;2.92;2.25;;;8.90;99.90;;;;;;4988116;28;20049;-58
2023/01/10 12:36:05;;;;;;;5.75;3.20;;;8.90;99.90;;;;;;4991365;28;20046;-59
2023/01/10 12:39:04;;;;;;;8.68;4.82;;;8.90;99.90;;;;;;4971024;28;20046;-58
2023/01/10 12:44:41;;;;;;;13.32;6.78;;;9.00;99.90;;;;;;4990276;28;20054;-59
2023/01/10 12:47:42;;;;;;;11.25;6.20;;;9.10;99.90;;;;;;4987749;28;20049;-59
2023/01/10 12:50:12;;;;;;;11.60;6.47;;;9.10;99.90;;;;;;4980431;28;20043;-59
2023/01/10 12:52:58;;;;;;;24.05;11.52;;;9.20;99.90;;;;;;4983937;28;20058;-60
2023/01/10 12:55:42;;;;;;;16.52;7.20;;;9.20;99.90;;;;;;4991203;28;20050;-59
2023/01/10 12:58:44;;;;;;;3.47;2.53;;;9.20;99.90;;;;;;4993376;28;20514;-59
2023/01/10 13:01:34;;;;;;;9.57;4.00;;;9.30;99.90;;;;;;4985516;28;20525;-58
2023/01/10 13:04:11;;;;;;;6.40;3.15;;;9.30;99.90;;;;;;4991071;28;20057;-59
2023/01/10 13:06:41;;;;;;;6.55;3.17;;;9.30;99.90;;;;;;4989781;28;20053;-60
2023/01/10 13:09:20;;;;;;;4.93;3.88;;;9.40;99.90;;;;;;4989265;28;20046;-60
2023/01/10 13:12:06;;;;;;;7.03;3.23;;;9.40;99.90;;;;;;4987046;28;20046;-58
2023/01/10 13:14:41;;;;;;;2.45;1.65;;;9.40;99.90;;;;;;4989949;28;20308;-58
2023/01/10 13:17:30;;;;;;;6.25;1.70;;;9.40;99.90;;;;;;4990175;28;20046;-58
2023/01/10 13:20:17;;;;;;;2.28;1.40;;;9.50;99.90;;;;;;4980068;28;20050;-59
2023/01/10 13:22:47;;;;;;;9.30;3.08;;;9.60;99.90;;;;;;4986157;28;20050;-60
2023/01/10 13:25:36;;;;;;;3.60;1.80;;;9.50;99.90;;;;;;4993020;28;20070;-57
2023/01/10 13:28:18;;;;;;;4.82;1.75;;;9.60;99.90;;;;;;5005803;28;20053;-59
2023/01/10 13:30:52;;;;;;;6.30;1.50;;;9.60;99.90;;;;;;4990396;28;20413;-59
2023/01/10 13:33:48;;;;;;;2.95;1.42;;;9.70;99.90;;;;;;4986056;28;20053;-58